Time;durP1;ratioP1;P1;durP2;ratioP2;P2;SDS_P1;SDS_P2;PMS_P1;PMS_P2;Temp;Humidity;BMP_temperature;BMP_pressure;BME280_temperature;BME280_humidity;BME280_pressure;Samples;Min_cycle;Max_cycle;Signal;HPM_P1;HPM_P2
2023/02/23 10:12:04;;;;;;;27.30;25.20;;;12.50;99.90;;;;;;5600954;22;15063506;-91
2023/02/23 10:14:45;;;;;;;27.70;25.20;;;14.40;99.90;;;;;;6250240;23;20176;-88
2023/02/23 10:17:24;;;;;;;26.90;24.47;;;14.50;99.90;;;;;;6250625;23;20411;-89
2023/02/23 10:19:57;;;;;;;27.70;25.40;;;14.70;99.90;;;;;;6250380;23;20403;-87
2023/02/23 10:22:25;;;;;;;24.00;22.20;;;14.90;99.90;;;;;;6248876;23;20411;-89
2023/02/23 10:24:57;;;;;;;24.10;21.93;;;15.40;99.90;;;;;;6248221;23;20731;-89
2023/02/23 10:27:30;;;;;;;25.77;23.53;;;15.60;99.90;;;;;;6247801;23;20438;-89
2023/02/23 10:30:00;;;;;;;26.23;24.07;;;15.70;99.90;;;;;;6247477;23;20817;-89
2023/02/23 10:32:37;;;;;;;25.10;23.00;;;15.60;99.90;;;;;;6247987;23;20496;-89
2023/02/23 10:35:11;;;;;;;26.37;23.83;;;15.70;99.90;;;;;;6248340;23;20663;-88
2023/02/23 10:37:39;;;;;;;24.80;22.87;;;16.30;99.90;;;;;;6249852;23;20407;-86
2023/02/23 10:40:07;;;;;;;23.83;22.00;;;17.20;99.90;;;;;;6249854;23;20410;-87
2023/02/23 10:42:35;;;;;;;28.07;25.43;;;17.80;99.90;;;;;;6248489;23;20411;-87
2023/02/23 10:45:02;;;;;;;25.53;23.43;;;17.80;99.90;;;;;;6248334;23;20407;-87
2023/02/23 10:47:32;;;;;;;26.07;23.63;;;17.60;99.90;;;;;;6247155;23;20917;-87
2023/02/23 10:49:59;;;;;;;27.00;24.93;;;17.70;99.90;;;;;;6246658;23;20973;-87
2023/02/23 10:52:31;;;;;;;26.13;23.40;;;17.40;99.90;;;;;;6246746;23;20937;-86
2023/02/23 10:54:59;;;;;;;24.87;22.70;;;16.90;99.90;;;;;;6247383;23;20415;-87
2023/02/23 10:57:28;;;;;;;21.67;19.70;;;16.50;99.90;;;;;;6246873;23;20688;-88
2023/02/23 11:00:25;;;;;;;25.40;23.00;;;16.40;99.90;;;;;;6247267;23;20413;-87
2023/02/23 11:02:53;;;;;;;24.77;22.73;;;15.90;99.90;;;;;;6246987;23;20411;-87
2023/02/23 11:05:31;;;;;;;22.70;20.77;;;15.80;99.90;;;;;;6247356;23;20802;-89
2023/02/23 11:08:28;;;;;;;23.00;21.07;;;15.70;99.90;;;;;;6247566;23;20458;-88
2023/02/23 11:11:07;;;;;;;22.17;20.47;;;15.60;99.90;;;;;;6176549;23;20787;-87
2023/02/23 11:13:38;;;;;;;21.20;19.60;;;15.80;99.90;;;;;;6240958;23;20410;-87
2023/02/23 11:16:11;;;;;;;19.93;18.37;;;15.60;99.90;;;;;;6240811;23;20455;-89
2023/02/23 11:18:40;;;;;;;20.07;18.50;;;15.90;99.90;;;;;;6240589;23;20408;-88
2023/02/23 11:21:12;;;;;;;18.50;17.20;;;16.10;99.90;;;;;;6241275;23;20415;-89
2023/02/23 11:23:40;;;;;;;17.63;16.43;;;16.40;99.90;;;;;;6241535;23;20470;-90
2023/02/23 11:26:22;;;;;;;18.70;17.47;;;16.80;99.90;;;;;;6242027;23;20435;-91
2023/02/23 11:28:52;;;;;;;17.70;16.30;;;17.20;99.90;;;;;;6241478;23;20412;-89
2023/02/23 11:31:23;;;;;;;16.30;15.20;;;17.90;99.90;;;;;;6240772;23;20447;-89
2023/02/23 11:33:50;;;;;;;18.33;16.70;;;17.80;99.90;;;;;;6241341;23;20514;-88
2023/02/23 11:36:27;;;;;;;17.30;16.30;;;17.90;99.90;;;;;;6242399;23;20416;-89
2023/02/23 11:39:03;;;;;;;16.97;15.90;;;18.70;99.90;;;;;;6241827;23;20510;-89
2023/02/23 11:41:31;;;;;;;17.07;15.87;;;19.30;99.90;;;;;;6240634;23;20486;-89
2023/02/23 11:44:01;;;;;;;16.47;14.97;;;19.70;98.90;;;;;;6240668;23;20434;-87
2023/02/23 11:46:31;;;;;;;17.90;16.30;;;19.90;97.70;;;;;;6239738;23;20991;-88
2023/02/23 11:49:01;;;;;;;16.53;15.43;;;19.70;98.10;;;;;;6239654;23;20439;-88
2023/02/23 11:51:31;;;;;;;16.40;15.20;;;19.90;97.80;;;;;;6239926;23;21016;-87
2023/02/23 11:53:58;;;;;;;16.17;15.13;;;19.90;97.30;;;;;;6240487;23;20419;-87
2023/02/23 11:56:27;;;;;;;16.77;15.33;;;19.50;96.80;;;;;;6240473;23;20746;-87
2023/02/23 11:58:57;;;;;;;18.40;16.90;;;19.10;97.90;;;;;;6240352;23;20862;-87
2023/02/23 12:01:38;;;;;;;17.83;16.17;;;18.80;99.30;;;;;;6239700;23;20431;-87
2023/02/23 12:04:05;;;;;;;17.37;16.27;;;19.10;99.10;;;;;;6240279;23;20418;-87
2023/02/23 12:06:35;;;;;;;17.53;16.53;;;19.20;97.90;;;;;;6240495;23;20486;-86
2023/02/23 12:09:11;;;;;;;15.93;14.93;;;19.10;96.90;;;;;;6244886;23;20430;-86
2023/02/23 12:11:43;;;;;;;15.63;14.63;;;19.20;97.30;;;;;;6243225;23;20447;-85
2023/02/23 12:14:18;;;;;;;15.60;14.70;;;19.00;97.00;;;;;;6247082;23;20528;-85
2023/02/23 12:16:50;;;;;;;16.83;15.67;;;19.00;96.60;;;;;;6245295;23;20874;-84
2023/02/23 12:19:27;;;;;;;16.27;15.23;;;18.90;97.00;;;;;;6239780;23;20458;-85
2023/02/23 12:22:03;;;;;;;15.80;14.60;;;17.80;98.40;;;;;;6239813;23;20510;-85
2023/02/23 12:24:42;;;;;;;14.30;13.30;;;17.70;99.20;;;;;;6239876;23;20465;-85
2023/02/23 12:27:15;;;;;;;14.67;13.87;;;17.50;99.10;;;;;;6239333;23;20439;-84
2023/02/23 12:29:53;;;;;;;14.30;13.47;;;17.20;99.30;;;;;;6239481;23;20419;-83
2023/02/23 12:32:26;;;;;;;15.17;14.00;;;16.90;99.90;;;;;;6239726;23;20407;-84
2023/02/23 12:34:57;;;;;;;13.73;12.83;;;16.70;99.90;;;;;;6241746;23;20412;-85
2023/02/23 12:37:35;;;;;;;15.77;14.50;;;17.00;99.90;;;;;;6242844;23;20408;-84
2023/02/23 12:40:13;;;;;;;16.47;15.17;;;17.20;99.90;;;;;;6242350;23;20403;-83
2023/02/23 12:42:46;;;;;;;16.77;15.43;;;17.30;99.90;;;;;;6239708;23;20416;-82
2023/02/23 12:45:18;;;;;;;14.47;13.63;;;17.30;99.90;;;;;;6239337;23;20416;-83
2023/02/23 12:47:53;;;;;;;15.27;14.17;;;17.20;99.90;;;;;;6239313;23;20451;-82
2023/02/23 12:50:28;;;;;;;15.90;14.70;;;17.30;99.90;;;;;;6239116;23;20498;-83
2023/02/23 12:53:00;;;;;;;14.40;12.93;;;17.00;99.90;;;;;;6239076;23;20412;-83
2023/02/23 12:55:37;;;;;;;18.60;13.47;;;17.00;99.90;;;;;;6239077;23;20499;-83
2023/02/23 12:58:13;;;;;;;14.83;13.87;;;16.80;99.90;;;;;;6239195;23;20456;-83
2023/02/23 13:00:52;;;;;;;15.17;14.17;;;16.50;99.90;;;;;;6239176;23;20400;-82
2023/02/23 13:03:54;;;;;;;15.73;14.77;;;16.20;99.90;;;;;;6238814;23;20410;-83
2023/02/23 13:06:35;;;;;;;14.27;13.33;;;16.30;99.90;;;;;;6238719;23;20408;-83
2023/02/23 13:09:15;;;;;;;14.30;13.40;;;16.40;99.90;;;;;;6239294;23;20414;-84
2023/02/23 13:12:05;;;;;;;14.27;13.27;;;16.40;99.90;;;;;;6238206;23;20584;-82
2023/02/23 13:14:43;;;;;;;15.53;14.17;;;16.40;99.90;;;;;;6239432;23;20411;-83
2023/02/23 13:17:34;;;;;;;13.50;12.60;;;16.30;99.90;;;;;;6239107;23;20466;-84
2023/02/23 13:20:11;;;;;;;16.10;14.57;;;16.30;99.90;;;;;;6239043;23;20431;-84
2023/02/23 13:22:46;;;;;;;14.53;13.43;;;16.30;99.90;;;;;;6238466;23;20481;-84
2023/02/23 13:25:24;;;;;;;14.87;13.60;;;16.40;99.90;;;;;;6238871;23;20435;-84
2023/02/23 13:27:55;;;;;;;13.53;12.73;;;16.40;99.90;;;;;;6239110;23;20407;-83
2023/02/23 13:30:22;;;;;;;13.10;12.37;;;16.30;99.90;;;;;;6240595;23;20446;-83
2023/02/23 13:32:49;;;;;;;15.17;14.07;;;16.40;99.90;;;;;;6239232;23;20419;-84
2023/02/23 13:35:20;;;;;;;14.73;13.87;;;16.50;99.90;;;;;;6239965;23;20423;-83
2023/02/23 13:37:51;;;;;;;14.40;13.40;;;16.40;99.90;;;;;;6239167;23;20443;-82
2023/02/23 13:40:29;;;;;;;12.90;12.20;;;16.30;99.90;;;;;;6239104;23;20465;-83
2023/02/23 13:43:05;;;;;;;16.17;14.90;;;16.30;99.90;;;;;;6239151;23;20658;-83
2023/02/23 13:45:48;;;;;;;16.47;15.17;;;16.50;99.90;;;;;;6239959;23;20795;-83
2023/02/23 13:48:25;;;;;;;15.67;14.67;;;16.50;99.90;;;;;;6239115;23;21272;-81
2023/02/23 13:50:59;;;;;;;14.90;13.80;;;16.60;99.90;;;;;;6238625;23;20454;-81
2023/02/23 13:53:38;;;;;;;15.97;14.73;;;16.60;99.90;;;;;;6238672;23;20427;-83
2023/02/23 13:56:08;;;;;;;16.30;15.30;;;16.60;99.90;;;;;;6239052;23;20503;-83
2023/02/23 13:58:35;;;;;;;14.80;13.70;;;16.60;99.90;;;;;;6238852;23;20412;-82
2023/02/23 14:01:09;;;;;;;17.00;15.87;;;16.60;99.90;;;;;;6239223;23;20412;-82
2023/02/23 14:03:45;;;;;;;21.10;16.60;;;16.60;99.90;;;;;;6239084;23;20447;-83
2023/02/23 14:06:15;;;;;;;17.03;15.77;;;16.40;99.90;;;;;;6239033;23;20514;-82
2023/02/23 14:08:44;;;;;;;17.60;16.03;;;16.30;99.90;;;;;;6239038;23;20632;-81
2023/02/23 14:11:29;;;;;;;16.23;15.10;;;16.10;99.90;;;;;;6238323;23;20486;-80
2023/02/23 14:14:02;;;;;;;17.93;16.53;;;16.00;99.90;;;;;;6238111;23;20997;-81
2023/02/23 14:16:29;;;;;;;17.00;15.57;;;16.00;99.90;;;;;;6238490;23;20415;-80
2023/02/23 14:19:07;;;;;;;17.07;15.87;;;15.80;99.90;;;;;;6238569;23;20415;-80
2023/02/23 14:21:43;;;;;;;20.80;15.70;;;15.80;99.90;;;;;;6239066;23;20400;-82
2023/02/23 14:24:18;;;;;;;17.77;16.47;;;15.80;99.90;;;;;;6238326;23;20411;-81
2023/02/23 14:27:07;;;;;;;17.33;16.13;;;15.90;99.90;;;;;;6238599;23;21099;-79
2023/02/23 14:29:39;;;;;;;16.33;14.63;;;15.90;99.90;;;;;;6238683;23;20415;-79
2023/02/23 14:32:28;;;;;;;14.63;13.63;;;15.80;99.90;;;;;;6238387;23;20475;-80
2023/02/23 14:34:57;;;;;;;15.10;13.80;;;15.70;99.90;;;;;;6238416;23;20404;-81
2023/02/23 14:37:30;;;;;;;16.43;15.23;;;15.70;99.90;;;;;;6238151;23;20735;-80
2023/02/23 14:40:04;;;;;;;16.00;14.50;;;15.80;99.90;;;;;;6238293;23;20763;-79
2023/02/23 14:42:31;;;;;;;15.57;14.47;;;15.80;99.90;;;;;;6238171;23;20495;-81
2023/02/23 14:45:04;;;;;;;13.70;12.80;;;15.50;99.90;;;;;;6238513;23;20408;-80
2023/02/23 14:47:42;;;;;;;14.40;13.10;;;15.40;99.90;;;;;;6239664;23;20790;-80
2023/02/23 14:50:16;;;;;;;16.63;15.23;;;15.50;99.90;;;;;;6239996;23;20411;-81
2023/02/23 14:52:45;;;;;;;13.03;12.13;;;15.40;99.90;;;;;;6240259;23;20469;-81
2023/02/23 14:55:22;;;;;;;16.23;15.00;;;15.40;99.90;;;;;;6240505;23;20815;-78
2023/02/23 14:57:49;;;;;;;16.00;14.67;;;15.40;99.90;;;;;;6240579;23;20470;-79
2023/02/23 15:00:21;;;;;;;15.10;14.10;;;15.20;99.90;;;;;;6240408;23;20439;-81
2023/02/23 15:02:57;;;;;;;16.17;14.90;;;15.10;99.90;;;;;;6240746;23;20426;-82
2023/02/23 15:05:28;;;;;;;14.60;13.50;;;15.20;99.90;;;;;;6240161;23;20419;-81
2023/02/23 15:07:59;;;;;;;14.63;13.53;;;15.30;99.90;;;;;;6239819;23;20428;-83
2023/02/23 15:10:31;;;;;;;15.33;14.33;;;15.20;99.90;;;;;;6239942;23;20448;-79
2023/02/23 15:12:59;;;;;;;15.70;14.70;;;15.30;99.90;;;;;;6240140;23;20729;-80
2023/02/23 15:15:29;;;;;;;15.70;14.33;;;15.50;99.90;;;;;;6240224;23;20500;-80
2023/02/23 15:17:59;;;;;;;14.53;13.27;;;15.40;99.90;;;;;;6240014;23;20411;-80
2023/02/23 15:20:31;;;;;;;14.33;13.30;;;15.40;99.90;;;;;;6239841;23;20422;-81
2023/02/23 15:23:01;;;;;;;14.83;13.20;;;15.40;99.90;;;;;;6239992;23;20422;-81
2023/02/23 15:25:35;;;;;;;16.57;15.27;;;15.40;99.90;;;;;;6239749;23;20412;-81
2023/02/23 15:28:12;;;;;;;15.23;13.77;;;15.40;99.90;;;;;;6240353;23;20735;-82
2023/02/23 15:30:46;;;;;;;13.10;12.30;;;15.50;99.90;;;;;;6239995;23;20411;-81
2023/02/23 15:33:22;;;;;;;13.20;12.30;;;15.50;99.90;;;;;;6239737;23;20411;-81
2023/02/23 15:35:52;;;;;;;12.10;11.50;;;15.30;99.90;;;;;;6239996;23;20957;-80
2023/02/23 15:38:24;;;;;;;15.63;14.20;;;15.20;99.90;;;;;;6240197;23;20418;-81
2023/02/23 15:40:55;;;;;;;14.23;13.13;;;15.10;99.90;;;;;;6239205;23;20408;-81
2023/02/23 15:43:22;;;;;;;13.53;12.73;;;15.10;99.90;;;;;;6241478;23;20404;-81
2023/02/23 15:45:52;;;;;;;16.47;15.43;;;15.10;99.90;;;;;;6245111;23;20430;-79
2023/02/23 15:48:22;;;;;;;16.77;15.67;;;15.00;99.90;;;;;;6243968;23;20404;-80
2023/02/23 15:50:52;;;;;;;16.87;15.53;;;14.80;99.90;;;;;;6242232;23;20415;-79
2023/02/23 15:53:28;;;;;;;18.23;17.00;;;14.60;99.90;;;;;;6241328;23;20412;-80
2023/02/23 15:55:59;;;;;;;17.07;15.40;;;14.50;99.90;;;;;;6240992;23;20509;-80
2023/02/23 15:58:28;;;;;;;15.90;14.40;;;14.30;99.90;;;;;;6241230;23;20511;-80
2023/02/23 16:00:57;;;;;;;16.13;14.60;;;14.30;99.90;;;;;;6241031;23;20416;-80
2023/02/23 16:03:29;;;;;;;16.00;15.00;;;14.40;99.90;;;;;;6242417;23;20412;-82
2023/02/23 16:06:00;;;;;;;16.83;15.50;;;14.40;99.90;;;;;;6241153;23;20408;-80
2023/02/23 16:08:29;;;;;;;15.63;14.53;;;14.50;99.90;;;;;;6240686;23;20706;-81
2023/02/23 16:11:10;;;;;;;17.27;15.70;;;14.50;99.90;;;;;;6240821;23;20752;-80
2023/02/23 16:13:38;;;;;;;17.67;15.97;;;14.40;99.90;;;;;;6241339;23;20415;-81
2023/02/23 16:16:08;;;;;;;18.43;16.70;;;14.40;99.90;;;;;;6240212;23;20412;-81
2023/02/23 16:18:39;;;;;;;18.03;16.43;;;14.30;99.90;;;;;;6240002;23;20507;-82
2023/02/23 16:21:06;;;;;;;17.57;16.00;;;14.40;99.90;;;;;;6240014;23;20419;-82
2023/02/23 16:23:40;;;;;;;17.60;16.40;;;14.40;99.90;;;;;;6240627;23;20408;-82
2023/02/23 16:26:10;;;;;;;17.93;16.50;;;14.30;99.90;;;;;;6239676;23;20774;-81
2023/02/23 16:28:42;;;;;;;17.93;16.30;;;14.30;99.90;;;;;;6239889;23;20457;-81
2023/02/23 16:31:12;;;;;;;17.23;15.90;;;14.10;99.90;;;;;;6239315;23;20964;-81
2023/02/23 16:33:43;;;;;;;18.63;16.80;;;14.10;99.90;;;;;;6239739;23;20447;-81
2023/02/23 16:36:18;;;;;;;19.00;17.27;;;14.10;99.90;;;;;;6239733;23;20788;-81
2023/02/23 16:38:57;;;;;;;19.03;17.63;;;14.00;99.90;;;;;;6239558;23;20410;-80
2023/02/23 16:41:25;;;;;;;16.40;15.07;;;13.90;99.90;;;;;;6239540;23;20408;-81
2023/02/23 16:43:54;;;;;;;17.17;15.87;;;13.80;99.90;;;;;;6239297;23;20410;-82
2023/02/23 16:46:23;;;;;;;17.00;15.60;;;13.70;99.90;;;;;;6239466;23;20412;-80
2023/02/23 16:48:50;;;;;;;17.40;15.90;;;13.60;99.90;;;;;;6239614;23;20415;-80
2023/02/23 16:51:19;;;;;;;18.47;17.17;;;13.50;99.90;;;;;;6239783;23;20407;-80
2023/02/23 16:53:47;;;;;;;17.27;15.80;;;13.50;99.90;;;;;;6239574;23;20734;-80
2023/02/23 16:56:18;;;;;;;17.23;16.10;;;13.40;99.90;;;;;;6239139;23;20408;-80
2023/02/23 16:58:47;;;;;;;18.07;16.90;;;13.40;99.90;;;;;;6239299;23;20418;-80
2023/02/23 17:01:16;;;;;;;17.57;16.17;;;13.30;99.90;;;;;;6239469;23;20911;-81
2023/02/23 17:03:43;;;;;;;17.57;16.37;;;13.20;99.90;;;;;;6239312;23;20415;-80
2023/02/23 17:06:11;;;;;;;18.57;16.93;;;13.20;99.90;;;;;;6238995;23;20442;-80
2023/02/23 17:08:38;;;;;;;17.97;16.87;;;13.10;99.90;;;;;;6239075;23;20456;-80
2023/02/23 17:11:07;;;;;;;17.87;16.57;;;13.00;99.90;;;;;;6239043;23;20857;-80
2023/02/23 17:13:34;;;;;;;18.40;17.00;;;13.10;99.90;;;;;;6239695;23;20419;-80
2023/02/23 17:16:05;;;;;;;18.80;17.50;;;13.10;99.90;;;;;;6239461;23;20408;-79
2023/02/23 17:18:34;;;;;;;19.03;17.40;;;13.00;99.90;;;;;;6239660;23;20419;-80
2023/02/23 17:21:04;;;;;;;17.80;16.47;;;13.00;99.90;;;;;;6240228;23;20515;-81
2023/02/23 17:23:41;;;;;;;18.77;17.10;;;13.00;99.90;;;;;;6239797;23;20412;-81
2023/02/23 17:26:11;;;;;;;18.73;17.63;;;12.90;99.90;;;;;;6239443;23;20415;-81
2023/02/23 17:28:38;;;;;;;19.50;18.00;;;12.90;99.90;;;;;;6239233;23;20420;-81
2023/02/23 17:31:06;;;;;;;19.07;17.70;;;12.90;99.90;;;;;;6239621;23;20438;-81
2023/02/23 17:33:35;;;;;;;19.50;18.10;;;12.90;99.90;;;;;;6239552;23;20457;-81
2023/02/23 17:36:04;;;;;;;18.73;17.23;;;12.90;99.90;;;;;;6239824;23;20419;-80
2023/02/23 17:38:33;;;;;;;19.37;17.77;;;12.80;99.90;;;;;;6239907;23;20408;-81
2023/02/23 17:41:01;;;;;;;20.27;18.73;;;12.80;99.90;;;;;;6239527;23;20447;-79
2023/02/23 17:43:29;;;;;;;19.67;18.03;;;12.90;99.90;;;;;;6239282;23;20427;-81
2023/02/23 17:45:57;;;;;;;20.50;18.63;;;12.90;99.90;;;;;;6238745;23;20419;-80
2023/02/23 17:48:25;;;;;;;20.20;18.83;;;12.90;99.90;;;;;;6239119;23;20412;-80
2023/02/23 17:50:58;;;;;;;19.10;17.60;;;12.90;99.90;;;;;;6239174;23;20416;-80
2023/02/23 17:53:25;;;;;;;21.13;19.27;;;12.90;99.90;;;;;;6238915;23;20517;-81
2023/02/23 17:55:52;;;;;;;20.13;18.93;;;12.80;99.90;;;;;;6238917;23;20419;-80
2023/02/23 17:58:19;;;;;;;20.87;19.47;;;12.90;99.90;;;;;;6239552;23;20518;-81
